sensor_id;sensor_type;location;lat;lon;timestamp;P1;durP1;ratioP1;P2;durP2;ratioP2
75512;SDS011;64090;49.770;18.760;2023-08-31T00:03:41;10.30;;;7.10;;
75512;SDS011;64090;49.770;18.760;2023-08-31T00:06:56;11.90;;;8.10;;
75512;SDS011;64090;49.770;18.760;2023-08-31T00:10:04;11.80;;;6.20;;
75512;SDS011;64090;49.770;18.760;2023-08-31T00:13:17;11.90;;;8.10;;
75512;SDS011;64090;49.770;18.760;2023-08-31T00:16:46;13.50;;;8.00;;
75512;SDS011;64090;49.770;18.760;2023-08-31T00:20:30;16.60;;;9.30;;
75512;SDS011;64090;49.770;18.760;2023-08-31T00:23:54;12.10;;;7.10;;
75512;SDS011;64090;49.770;18.760;2023-08-31T00:27:17;11.10;;;7.20;;
75512;SDS011;64090;49.770;18.760;2023-08-31T00:30:23;11.90;;;7.50;;
75512;SDS011;64090;49.770;18.760;2023-08-31T00:33:54;11.60;;;7.40;;
75512;SDS011;64090;49.770;18.760;2023-08-31T00:37:21;11.30;;;7.60;;
75512;SDS011;64090;49.770;18.760;2023-08-31T00:40:48;12.20;;;7.80;;
75512;SDS011;64090;49.770;18.760;2023-08-31T00:44:05;9.20;;;6.50;;
75512;SDS011;64090;49.770;18.760;2023-08-31T00:47:18;12.50;;;8.10;;
75512;SDS011;64090;49.770;18.760;2023-08-31T00:50:27;10.40;;;6.70;;
75512;SDS011;64090;49.770;18.760;2023-08-31T00:54:14;11.20;;;6.70;;
75512;SDS011;64090;49.770;18.760;2023-08-31T00:57:54;11.20;;;7.00;;
75512;SDS011;64090;49.770;18.760;2023-08-31T01:01:22;13.20;;;8.10;;
75512;SDS011;64090;49.770;18.760;2023-08-31T01:05:11;10.20;;;6.80;;
75512;SDS011;64090;49.770;18.760;2023-08-31T01:09:47;11.70;;;7.50;;
75512;SDS011;64090;49.770;18.760;2023-08-31T01:13:38;13.20;;;8.70;;
75512;SDS011;64090;49.770;18.760;2023-08-31T01:16:59;14.20;;;9.20;;
75512;SDS011;64090;49.770;18.760;2023-08-31T01:20:33;13.60;;;8.60;;
75512;SDS011;64090;49.770;18.760;2023-08-31T01:24:19;11.50;;;7.40;;
75512;SDS011;64090;49.770;18.760;2023-08-31T01:27:41;12.60;;;7.60;;
75512;SDS011;64090;49.770;18.760;2023-08-31T01:31:12;11.20;;;7.30;;
75512;SDS011;64090;49.770;18.760;2023-08-31T01:34:24;15.70;;;9.20;;
75512;SDS011;64090;49.770;18.760;2023-08-31T01:37:57;10.10;;;6.00;;
75512;SDS011;64090;49.770;18.760;2023-08-31T01:41:07;13.60;;;7.70;;
75512;SDS011;64090;49.770;18.760;2023-08-31T01:44:26;10.80;;;7.20;;
75512;SDS011;64090;49.770;18.760;2023-08-31T01:47:38;11.60;;;7.60;;
75512;SDS011;64090;49.770;18.760;2023-08-31T01:54:11;9.90;;;6.30;;
75512;SDS011;64090;49.770;18.760;2023-08-31T01:57:55;7.90;;;5.00;;
75512;SDS011;64090;49.770;18.760;2023-08-31T02:01:10;8.80;;;5.80;;
75512;SDS011;64090;49.770;18.760;2023-08-31T02:04:45;11.00;;;6.70;;
75512;SDS011;64090;49.770;18.760;2023-08-31T02:08:13;8.20;;;5.40;;
75512;SDS011;64090;49.770;18.760;2023-08-31T02:11:36;10.80;;;6.80;;
75512;SDS011;64090;49.770;18.760;2023-08-31T02:14:56;11.80;;;6.90;;
75512;SDS011;64090;49.770;18.760;2023-08-31T02:18:15;10.90;;;7.30;;
75512;SDS011;64090;49.770;18.760;2023-08-31T02:21:25;10.90;;;6.90;;
75512;SDS011;64090;49.770;18.760;2023-08-31T02:24:30;9.40;;;5.90;;
75512;SDS011;64090;49.770;18.760;2023-08-31T02:27:41;9.90;;;6.00;;
75512;SDS011;64090;49.770;18.760;2023-08-31T02:30:58;9.00;;;5.40;;
75512;SDS011;64090;49.770;18.760;2023-08-31T02:34:27;9.60;;;5.80;;
75512;SDS011;64090;49.770;18.760;2023-08-31T02:37:42;11.50;;;6.50;;
75512;SDS011;64090;49.770;18.760;2023-08-31T02:40:56;10.20;;;6.20;;
75512;SDS011;64090;49.770;18.760;2023-08-31T02:44:13;13.30;;;7.10;;
75512;SDS011;64090;49.770;18.760;2023-08-31T02:47:43;13.50;;;7.90;;
75512;SDS011;64090;49.770;18.760;2023-08-31T02:51:24;12.60;;;7.90;;
75512;SDS011;64090;49.770;18.760;2023-08-31T02:54:38;14.60;;;8.50;;
75512;SDS011;64090;49.770;18.760;2023-08-31T02:58:06;13.40;;;8.10;;
75512;SDS011;64090;49.770;18.760;2023-08-31T03:01:41;14.00;;;8.20;;
75512;SDS011;64090;49.770;18.760;2023-08-31T03:05:01;14.80;;;8.10;;
75512;SDS011;64090;49.770;18.760;2023-08-31T03:08:28;18.80;;;8.90;;
75512;SDS011;64090;49.770;18.760;2023-08-31T03:11:44;14.70;;;7.80;;
75512;SDS011;64090;49.770;18.760;2023-08-31T03:15:09;12.80;;;6.60;;
75512;SDS011;64090;49.770;18.760;2023-08-31T03:18:29;14.40;;;7.20;;
75512;SDS011;64090;49.770;18.760;2023-08-31T03:21:39;13.60;;;8.60;;
75512;SDS011;64090;49.770;18.760;2023-08-31T03:24:59;11.80;;;7.10;;
75512;SDS011;64090;49.770;18.760;2023-08-31T03:28:31;13.40;;;7.90;;
75512;SDS011;64090;49.770;18.760;2023-08-31T03:31:43;11.40;;;7.20;;
75512;SDS011;64090;49.770;18.760;2023-08-31T03:34:52;13.70;;;8.30;;
75512;SDS011;64090;49.770;18.760;2023-08-31T03:38:13;14.00;;;7.10;;
75512;SDS011;64090;49.770;18.760;2023-08-31T03:41:17;12.70;;;6.70;;
75512;SDS011;64090;49.770;18.760;2023-08-31T03:44:22;10.10;;;5.70;;
75512;SDS011;64090;49.770;18.760;2023-08-31T03:48:25;10.70;;;5.50;;
75512;SDS011;64090;49.770;18.760;2023-08-31T03:52:05;9.30;;;5.10;;
75512;SDS011;64090;49.770;18.760;2023-08-31T03:55:14;9.60;;;6.00;;
75512;SDS011;64090;49.770;18.760;2023-08-31T03:58:28;11.80;;;7.50;;
75512;SDS011;64090;49.770;18.760;2023-08-31T04:01:59;10.40;;;5.30;;
75512;SDS011;64090;49.770;18.760;2023-08-31T04:05:13;8.30;;;5.20;;
75512;SDS011;64090;49.770;18.760;2023-08-31T04:08:41;8.30;;;5.00;;
75512;SDS011;64090;49.770;18.760;2023-08-31T04:18:15;8.00;;;5.60;;
75512;SDS011;64090;49.770;18.760;2023-08-31T04:21:35;7.70;;;4.00;;
75512;SDS011;64090;49.770;18.760;2023-08-31T04:24:46;8.90;;;4.40;;
75512;SDS011;64090;49.770;18.760;2023-08-31T04:27:49;8.00;;;4.60;;
75512;SDS011;64090;49.770;18.760;2023-08-31T04:30:52;6.20;;;3.50;;
75512;SDS011;64090;49.770;18.760;2023-08-31T04:34:18;10.50;;;4.80;;
75512;SDS011;64090;49.770;18.760;2023-08-31T04:37:21;14.00;;;7.40;;
75512;SDS011;64090;49.770;18.760;2023-08-31T04:40:33;11.30;;;6.10;;
75512;SDS011;64090;49.770;18.760;2023-08-31T04:43:46;8.90;;;4.60;;
75512;SDS011;64090;49.770;18.760;2023-08-31T04:47:13;9.40;;;5.40;;
75512;SDS011;64090;49.770;18.760;2023-08-31T04:50:56;10.40;;;7.00;;
75512;SDS011;64090;49.770;18.760;2023-08-31T04:54:30;13.60;;;7.40;;
75512;SDS011;64090;49.770;18.760;2023-08-31T04:57:40;10.70;;;6.10;;
75512;SDS011;64090;49.770;18.760;2023-08-31T05:00:44;11.20;;;7.40;;
75512;SDS011;64090;49.770;18.760;2023-08-31T05:03:47;10.20;;;6.10;;
75512;SDS011;64090;49.770;18.760;2023-08-31T05:06:52;10.60;;;6.80;;
75512;SDS011;64090;49.770;18.760;2023-08-31T05:10:19;11.60;;;6.40;;
75512;SDS011;64090;49.770;18.760;2023-08-31T05:13:22;11.10;;;6.70;;
75512;SDS011;64090;49.770;18.760;2023-08-31T05:16:59;9.50;;;6.30;;
75512;SDS011;64090;49.770;18.760;2023-08-31T05:20:03;10.10;;;6.30;;
75512;SDS011;64090;49.770;18.760;2023-08-31T05:23:19;8.20;;;5.80;;
75512;SDS011;64090;49.770;18.760;2023-08-31T05:26:41;7.30;;;4.10;;
75512;SDS011;64090;49.770;18.760;2023-08-31T05:30:03;6.20;;;3.90;;
75512;SDS011;64090;49.770;18.760;2023-08-31T05:33:19;5.60;;;3.70;;
75512;SDS011;64090;49.770;18.760;2023-08-31T05:47:30;6.00;;;3.90;;
75512;SDS011;64090;49.770;18.760;2023-08-31T05:50:54;5.30;;;3.00;;
75512;SDS011;64090;49.770;18.760;2023-08-31T05:53:57;4.70;;;3.00;;
75512;SDS011;64090;49.770;18.760;2023-08-31T05:57:02;4.00;;;2.70;;
75512;SDS011;64090;49.770;18.760;2023-08-31T06:00:27;4.30;;;2.60;;
75512;SDS011;64090;49.770;18.760;2023-08-31T06:03:55;3.60;;;2.50;;
75512;SDS011;64090;49.770;18.760;2023-08-31T06:06:58;3.00;;;2.20;;
75512;SDS011;64090;49.770;18.760;2023-08-31T06:10:11;3.30;;;2.60;;
75512;SDS011;64090;49.770;18.760;2023-08-31T06:13:19;3.30;;;2.30;;
75512;SDS011;64090;49.770;18.760;2023-08-31T06:16:26;2.80;;;2.20;;
75512;SDS011;64090;49.770;18.760;2023-08-31T06:19:30;3.00;;;1.80;;
75512;SDS011;64090;49.770;18.760;2023-08-31T06:23:09;2.80;;;1.70;;
75512;SDS011;64090;49.770;18.760;2023-08-31T06:26:50;2.40;;;1.60;;
75512;SDS011;64090;49.770;18.760;2023-08-31T06:30:00;3.70;;;2.40;;
75512;SDS011;64090;49.770;18.760;2023-08-31T06:33:10;3.40;;;1.80;;
75512;SDS011;64090;49.770;18.760;2023-08-31T06:36:14;2.70;;;1.80;;
75512;SDS011;64090;49.770;18.760;2023-08-31T06:39:17;4.30;;;1.90;;
75512;SDS011;64090;49.770;18.760;2023-08-31T06:42:36;2.80;;;1.50;;
75512;SDS011;64090;49.770;18.760;2023-08-31T06:48:38;2.70;;;1.50;;
75512;SDS011;64090;49.770;18.760;2023-08-31T06:51:49;2.60;;;1.40;;
75512;SDS011;64090;49.770;18.760;2023-08-31T06:54:55;2.00;;;1.40;;
75512;SDS011;64090;49.770;18.760;2023-08-31T06:57:59;2.80;;;1.50;;
75512;SDS011;64090;49.770;18.760;2023-08-31T07:01:06;2.60;;;1.60;;
75512;SDS011;64090;49.770;18.760;2023-08-31T07:04:10;2.30;;;1.10;;
75512;SDS011;64090;49.770;18.760;2023-08-31T07:07:13;2.10;;;1.20;;
75512;SDS011;64090;49.770;18.760;2023-08-31T07:10:16;3.10;;;0.90;;
75512;SDS011;64090;49.770;18.760;2023-08-31T07:13:20;2.20;;;0.90;;
75512;SDS011;64090;49.770;18.760;2023-08-31T07:16:22;2.50;;;1.00;;
75512;SDS011;64090;49.770;18.760;2023-08-31T07:19:36;2.40;;;0.80;;
75512;SDS011;64090;49.770;18.760;2023-08-31T07:22:43;3.90;;;1.30;;
75512;SDS011;64090;49.770;18.760;2023-08-31T07:25:46;2.90;;;1.10;;
75512;SDS011;64090;49.770;18.760;2023-08-31T07:28:54;2.90;;;0.90;;
75512;SDS011;64090;49.770;18.760;2023-08-31T07:31:57;3.70;;;0.90;;
75512;SDS011;64090;49.770;18.760;2023-08-31T07:35:00;2.30;;;1.10;;
75512;SDS011;64090;49.770;18.760;2023-08-31T07:38:09;3.30;;;1.10;;
75512;SDS011;64090;49.770;18.760;2023-08-31T07:41:13;1.30;;;0.90;;
75512;SDS011;64090;49.770;18.760;2023-08-31T07:44:21;3.00;;;0.80;;
75512;SDS011;64090;49.770;18.760;2023-08-31T07:47:24;1.10;;;0.70;;
75512;SDS011;64090;49.770;18.760;2023-08-31T07:50:27;1.10;;;0.70;;
75512;SDS011;64090;49.770;18.760;2023-08-31T07:53:38;2.20;;;1.10;;
75512;SDS011;64090;49.770;18.760;2023-08-31T07:56:49;2.10;;;0.90;;
75512;SDS011;64090;49.770;18.760;2023-08-31T07:59:54;2.00;;;0.90;;
75512;SDS011;64090;49.770;18.760;2023-08-31T08:02:57;1.60;;;1.00;;
75512;SDS011;64090;49.770;18.760;2023-08-31T08:06:02;1.90;;;0.90;;
75512;SDS011;64090;49.770;18.760;2023-08-31T08:09:15;1.80;;;1.00;;
75512;SDS011;64090;49.770;18.760;2023-08-31T08:12:20;2.40;;;1.20;;
75512;SDS011;64090;49.770;18.760;2023-08-31T08:15:23;2.90;;;1.40;;
75512;SDS011;64090;49.770;18.760;2023-08-31T08:18:26;2.30;;;1.20;;
75512;SDS011;64090;49.770;18.760;2023-08-31T08:21:39;2.20;;;1.60;;
75512;SDS011;64090;49.770;18.760;2023-08-31T08:24:47;2.50;;;1.40;;
75512;SDS011;64090;49.770;18.760;2023-08-31T08:27:54;2.50;;;1.10;;
75512;SDS011;64090;49.770;18.760;2023-08-31T08:31:04;2.50;;;1.70;;
75512;SDS011;64090;49.770;18.760;2023-08-31T08:34:09;2.50;;;1.50;;
75512;SDS011;64090;49.770;18.760;2023-08-31T08:37:12;3.00;;;2.20;;
75512;SDS011;64090;49.770;18.760;2023-08-31T08:40:15;2.90;;;1.90;;
75512;SDS011;64090;49.770;18.760;2023-08-31T08:52:29;2.20;;;1.60;;
75512;SDS011;64090;49.770;18.760;2023-08-31T08:55:32;3.20;;;2.10;;
75512;SDS011;64090;49.770;18.760;2023-08-31T08:58:36;4.30;;;1.90;;
75512;SDS011;64090;49.770;18.760;2023-08-31T09:01:42;4.60;;;3.40;;
75512;SDS011;64090;49.770;18.760;2023-08-31T09:04:50;3.50;;;2.20;;
75512;SDS011;64090;49.770;18.760;2023-08-31T09:08:05;2.90;;;2.00;;
75512;SDS011;64090;49.770;18.760;2023-08-31T09:11:25;3.90;;;2.40;;
75512;SDS011;64090;49.770;18.760;2023-08-31T09:14:31;3.70;;;2.40;;
75512;SDS011;64090;49.770;18.760;2023-08-31T09:17:37;4.80;;;2.60;;
75512;SDS011;64090;49.770;18.760;2023-08-31T09:21:11;4.60;;;2.70;;
75512;SDS011;64090;49.770;18.760;2023-08-31T09:24:15;3.20;;;2.40;;
75512;SDS011;64090;49.770;18.760;2023-08-31T09:27:29;4.20;;;2.60;;
75512;SDS011;64090;49.770;18.760;2023-08-31T09:30:34;4.20;;;2.60;;
75512;SDS011;64090;49.770;18.760;2023-08-31T09:33:40;3.90;;;2.60;;
75512;SDS011;64090;49.770;18.760;2023-08-31T09:37:05;2.70;;;2.30;;
75512;SDS011;64090;49.770;18.760;2023-08-31T09:41:05;3.50;;;2.90;;
75512;SDS011;64090;49.770;18.760;2023-08-31T09:44:28;4.10;;;2.60;;
75512;SDS011;64090;49.770;18.760;2023-08-31T09:47:32;3.90;;;3.30;;
75512;SDS011;64090;49.770;18.760;2023-08-31T09:50:36;4.00;;;2.90;;
75512;SDS011;64090;49.770;18.760;2023-08-31T09:53:45;4.50;;;3.40;;
75512;SDS011;64090;49.770;18.760;2023-08-31T09:56:57;4.00;;;2.80;;
75512;SDS011;64090;49.770;18.760;2023-08-31T10:00:07;4.90;;;3.20;;
75512;SDS011;64090;49.770;18.760;2023-08-31T10:03:20;2.50;;;2.00;;
75512;SDS011;64090;49.770;18.760;2023-08-31T10:06:25;3.60;;;2.90;;
75512;SDS011;64090;49.770;18.760;2023-08-31T10:09:32;4.10;;;3.30;;
75512;SDS011;64090;49.770;18.760;2023-08-31T10:12:38;3.30;;;2.90;;
75512;SDS011;64090;49.770;18.760;2023-08-31T10:15:47;4.00;;;2.90;;
75512;SDS011;64090;49.770;18.760;2023-08-31T10:18:51;3.30;;;2.70;;
75512;SDS011;64090;49.770;18.760;2023-08-31T10:21:54;3.50;;;2.00;;
75512;SDS011;64090;49.770;18.760;2023-08-31T10:25:11;2.50;;;2.20;;
75512;SDS011;64090;49.770;18.760;2023-08-31T10:28:22;4.30;;;2.50;;
75512;SDS011;64090;49.770;18.760;2023-08-31T10:31:29;3.10;;;2.70;;
75512;SDS011;64090;49.770;18.760;2023-08-31T10:34:37;3.70;;;2.30;;
75512;SDS011;64090;49.770;18.760;2023-08-31T10:38:16;4.70;;;2.10;;
75512;SDS011;64090;49.770;18.760;2023-08-31T10:42:18;2.70;;;2.40;;
75512;SDS011;64090;49.770;18.760;2023-08-31T10:50:46;2.80;;;2.10;;
75512;SDS011;64090;49.770;18.760;2023-08-31T10:54:07;3.00;;;2.20;;
75512;SDS011;64090;49.770;18.760;2023-08-31T10:57:53;2.20;;;1.30;;
75512;SDS011;64090;49.770;18.760;2023-08-31T11:01:13;3.50;;;1.90;;
75512;SDS011;64090;49.770;18.760;2023-08-31T11:05:17;2.50;;;1.70;;
75512;SDS011;64090;49.770;18.760;2023-08-31T11:08:54;2.20;;;1.60;;
75512;SDS011;64090;49.770;18.760;2023-08-31T11:12:26;3.30;;;2.10;;
75512;SDS011;64090;49.770;18.760;2023-08-31T11:15:52;4.00;;;2.50;;
75512;SDS011;64090;49.770;18.760;2023-08-31T11:19:37;4.50;;;1.90;;
75512;SDS011;64090;49.770;18.760;2023-08-31T11:23:25;3.00;;;1.50;;
75512;SDS011;64090;49.770;18.760;2023-08-31T11:26:44;2.40;;;1.90;;
75512;SDS011;64090;49.770;18.760;2023-08-31T11:29:58;3.40;;;2.40;;
75512;SDS011;64090;49.770;18.760;2023-08-31T11:33:10;3.90;;;2.40;;
75512;SDS011;64090;49.770;18.760;2023-08-31T11:36:46;3.70;;;2.30;;
75512;SDS011;64090;49.770;18.760;2023-08-31T11:39:52;2.50;;;1.80;;
75512;SDS011;64090;49.770;18.760;2023-08-31T11:42:57;2.60;;;2.00;;
75512;SDS011;64090;49.770;18.760;2023-08-31T11:46:35;3.10;;;2.00;;
75512;SDS011;64090;49.770;18.760;2023-08-31T11:49:56;3.70;;;2.30;;
75512;SDS011;64090;49.770;18.760;2023-08-31T11:53:34;2.90;;;2.40;;
75512;SDS011;64090;49.770;18.760;2023-08-31T11:56:50;2.70;;;1.80;;
75512;SDS011;64090;49.770;18.760;2023-08-31T12:00:20;2.70;;;2.40;;
75512;SDS011;64090;49.770;18.760;2023-08-31T12:03:41;2.60;;;1.80;;
75512;SDS011;64090;49.770;18.760;2023-08-31T12:07:02;2.70;;;1.90;;
75512;SDS011;64090;49.770;18.760;2023-08-31T12:13:55;3.70;;;2.30;;
75512;SDS011;64090;49.770;18.760;2023-08-31T12:17:12;4.60;;;2.50;;
75512;SDS011;64090;49.770;18.760;2023-08-31T12:20:47;4.40;;;2.70;;
75512;SDS011;64090;49.770;18.760;2023-08-31T12:23:53;3.10;;;2.20;;
75512;SDS011;64090;49.770;18.760;2023-08-31T12:27:17;2.90;;;2.00;;
75512;SDS011;64090;49.770;18.760;2023-08-31T12:31:02;2.60;;;1.80;;
75512;SDS011;64090;49.770;18.760;2023-08-31T12:34:18;2.60;;;2.00;;
75512;SDS011;64090;49.770;18.760;2023-08-31T12:37:36;3.70;;;2.70;;
75512;SDS011;64090;49.770;18.760;2023-08-31T12:41:07;3.30;;;2.10;;
75512;SDS011;64090;49.770;18.760;2023-08-31T12:44:36;3.00;;;2.40;;
75512;SDS011;64090;49.770;18.760;2023-08-31T12:47:52;3.20;;;2.10;;
75512;SDS011;64090;49.770;18.760;2023-08-31T12:51:34;2.90;;;2.10;;
75512;SDS011;64090;49.770;18.760;2023-08-31T12:54:39;3.30;;;1.70;;
75512;SDS011;64090;49.770;18.760;2023-08-31T12:57:53;2.80;;;1.60;;
75512;SDS011;64090;49.770;18.760;2023-08-31T13:01:10;2.40;;;1.60;;
75512;SDS011;64090;49.770;18.760;2023-08-31T13:04:38;1.60;;;1.20;;
75512;SDS011;64090;49.770;18.760;2023-08-31T13:07:54;1.90;;;1.20;;
75512;SDS011;64090;49.770;18.760;2023-08-31T13:11:03;2.50;;;1.20;;
75512;SDS011;64090;49.770;18.760;2023-08-31T13:17:58;3.20;;;2.30;;
75512;SDS011;64090;49.770;18.760;2023-08-31T13:21:01;5.10;;;2.30;;
75512;SDS011;64090;49.770;18.760;2023-08-31T13:24:05;4.90;;;2.50;;
75512;SDS011;64090;49.770;18.760;2023-08-31T13:27:08;3.80;;;2.60;;
75512;SDS011;64090;49.770;18.760;2023-08-31T13:30:11;3.40;;;2.50;;
75512;SDS011;64090;49.770;18.760;2023-08-31T13:33:15;4.80;;;3.50;;
75512;SDS011;64090;49.770;18.760;2023-08-31T13:36:18;2.50;;;1.90;;
75512;SDS011;64090;49.770;18.760;2023-08-31T13:39:21;3.30;;;2.10;;
75512;SDS011;64090;49.770;18.760;2023-08-31T13:42:26;4.40;;;2.00;;
75512;SDS011;64090;49.770;18.760;2023-08-31T13:45:29;2.90;;;1.90;;
75512;SDS011;64090;49.770;18.760;2023-08-31T13:48:33;2.50;;;1.70;;
75512;SDS011;64090;49.770;18.760;2023-08-31T13:51:36;2.80;;;1.60;;
75512;SDS011;64090;49.770;18.760;2023-08-31T13:54:39;2.20;;;1.30;;
75512;SDS011;64090;49.770;18.760;2023-08-31T13:57:42;1.90;;;1.40;;
75512;SDS011;64090;49.770;18.760;2023-08-31T14:00:45;2.00;;;1.60;;
75512;SDS011;64090;49.770;18.760;2023-08-31T14:03:48;2.50;;;1.50;;
75512;SDS011;64090;49.770;18.760;2023-08-31T14:06:51;2.10;;;1.40;;
75512;SDS011;64090;49.770;18.760;2023-08-31T14:09:55;4.40;;;1.90;;
75512;SDS011;64090;49.770;18.760;2023-08-31T14:12:58;2.10;;;1.40;;
75512;SDS011;64090;49.770;18.760;2023-08-31T14:16:01;1.80;;;1.20;;
75512;SDS011;64090;49.770;18.760;2023-08-31T14:19:25;3.40;;;1.70;;
75512;SDS011;64090;49.770;18.760;2023-08-31T14:22:28;3.80;;;1.60;;
75512;SDS011;64090;49.770;18.760;2023-08-31T14:25:37;2.90;;;1.70;;
75512;SDS011;64090;49.770;18.760;2023-08-31T14:28:40;2.20;;;1.20;;
75512;SDS011;64090;49.770;18.760;2023-08-31T14:31:45;2.40;;;1.50;;
75512;SDS011;64090;49.770;18.760;2023-08-31T14:34:48;2.80;;;1.90;;
75512;SDS011;64090;49.770;18.760;2023-08-31T14:37:51;2.60;;;1.50;;
75512;SDS011;64090;49.770;18.760;2023-08-31T14:40:54;2.00;;;1.40;;
75512;SDS011;64090;49.770;18.760;2023-08-31T14:43:57;1.80;;;1.40;;
75512;SDS011;64090;49.770;18.760;2023-08-31T14:47:00;1.80;;;1.20;;
75512;SDS011;64090;49.770;18.760;2023-08-31T14:50:03;2.10;;;1.40;;
75512;SDS011;64090;49.770;18.760;2023-08-31T14:53:09;3.10;;;1.20;;
75512;SDS011;64090;49.770;18.760;2023-08-31T14:56:13;1.80;;;1.10;;
75512;SDS011;64090;49.770;18.760;2023-08-31T14:59:16;1.60;;;1.10;;
75512;SDS011;64090;49.770;18.760;2023-08-31T15:02:19;2.00;;;1.30;;
75512;SDS011;64090;49.770;18.760;2023-08-31T15:05:26;2.30;;;1.50;;
75512;SDS011;64090;49.770;18.760;2023-08-31T15:08:37;2.00;;;1.20;;
75512;SDS011;64090;49.770;18.760;2023-08-31T15:11:41;2.20;;;1.10;;
75512;SDS011;64090;49.770;18.760;2023-08-31T15:14:47;1.50;;;1.00;;
75512;SDS011;64090;49.770;18.760;2023-08-31T15:17:50;2.10;;;1.10;;
75512;SDS011;64090;49.770;18.760;2023-08-31T15:20:53;1.50;;;1.00;;
75512;SDS011;64090;49.770;18.760;2023-08-31T15:23:56;2.10;;;1.00;;
75512;SDS011;64090;49.770;18.760;2023-08-31T15:26:59;1.70;;;1.20;;
75512;SDS011;64090;49.770;18.760;2023-08-31T15:30:06;1.80;;;1.10;;
75512;SDS011;64090;49.770;18.760;2023-08-31T15:33:11;1.80;;;1.00;;
75512;SDS011;64090;49.770;18.760;2023-08-31T15:36:14;1.60;;;1.10;;
75512;SDS011;64090;49.770;18.760;2023-08-31T15:39:16;2.60;;;1.20;;
75512;SDS011;64090;49.770;18.760;2023-08-31T15:42:19;2.00;;;1.30;;
75512;SDS011;64090;49.770;18.760;2023-08-31T15:45:22;2.10;;;1.20;;
75512;SDS011;64090;49.770;18.760;2023-08-31T15:48:26;2.10;;;1.10;;
75512;SDS011;64090;49.770;18.760;2023-08-31T15:51:30;1.70;;;1.00;;
75512;SDS011;64090;49.770;18.760;2023-08-31T15:54:35;2.70;;;1.10;;
75512;SDS011;64090;49.770;18.760;2023-08-31T15:57:38;2.10;;;1.30;;
75512;SDS011;64090;49.770;18.760;2023-08-31T16:00:41;2.40;;;1.60;;
75512;SDS011;64090;49.770;18.760;2023-08-31T16:03:45;2.20;;;1.50;;
75512;SDS011;64090;49.770;18.760;2023-08-31T16:06:48;2.00;;;1.20;;
75512;SDS011;64090;49.770;18.760;2023-08-31T16:09:52;2.70;;;1.60;;
75512;SDS011;64090;49.770;18.760;2023-08-31T16:12:55;2.70;;;1.40;;
75512;SDS011;64090;49.770;18.760;2023-08-31T16:15:59;2.30;;;1.10;;
75512;SDS011;64090;49.770;18.760;2023-08-31T16:19:02;3.20;;;1.40;;
75512;SDS011;64090;49.770;18.760;2023-08-31T16:22:05;2.60;;;1.50;;
75512;SDS011;64090;49.770;18.760;2023-08-31T16:25:08;3.10;;;1.70;;
75512;SDS011;64090;49.770;18.760;2023-08-31T16:31:17;2.10;;;1.30;;
75512;SDS011;64090;49.770;18.760;2023-08-31T16:34:20;3.60;;;1.30;;
75512;SDS011;64090;49.770;18.760;2023-08-31T16:37:23;2.80;;;1.30;;
75512;SDS011;64090;49.770;18.760;2023-08-31T16:40:26;2.90;;;1.40;;
75512;SDS011;64090;49.770;18.760;2023-08-31T16:43:29;2.10;;;1.30;;
75512;SDS011;64090;49.770;18.760;2023-08-31T16:46:32;1.90;;;1.10;;
75512;SDS011;64090;49.770;18.760;2023-08-31T16:49:35;3.60;;;1.60;;
75512;SDS011;64090;49.770;18.760;2023-08-31T16:52:39;2.50;;;1.60;;
75512;SDS011;64090;49.770;18.760;2023-08-31T16:55:42;2.30;;;1.30;;
75512;SDS011;64090;49.770;18.760;2023-08-31T16:58:46;2.40;;;1.60;;
75512;SDS011;64090;49.770;18.760;2023-08-31T17:01:51;2.70;;;1.50;;
75512;SDS011;64090;49.770;18.760;2023-08-31T17:04:54;2.90;;;1.50;;
75512;SDS011;64090;49.770;18.760;2023-08-31T17:07:57;2.80;;;1.40;;
75512;SDS011;64090;49.770;18.760;2023-08-31T17:11:03;3.00;;;1.80;;
75512;SDS011;64090;49.770;18.760;2023-08-31T17:14:08;3.10;;;1.80;;
75512;SDS011;64090;49.770;18.760;2023-08-31T17:17:12;2.70;;;1.60;;
75512;SDS011;64090;49.770;18.760;2023-08-31T17:20:15;3.20;;;1.80;;
75512;SDS011;64090;49.770;18.760;2023-08-31T17:23:19;2.60;;;1.70;;
75512;SDS011;64090;49.770;18.760;2023-08-31T17:26:22;2.70;;;1.90;;
75512;SDS011;64090;49.770;18.760;2023-08-31T17:32:30;3.30;;;1.70;;
75512;SDS011;64090;49.770;18.760;2023-08-31T17:35:33;2.80;;;2.10;;
75512;SDS011;64090;49.770;18.760;2023-08-31T17:38:36;3.60;;;2.00;;
75512;SDS011;64090;49.770;18.760;2023-08-31T17:41:41;3.20;;;1.90;;
75512;SDS011;64090;49.770;18.760;2023-08-31T17:44:44;3.00;;;1.90;;
75512;SDS011;64090;49.770;18.760;2023-08-31T17:47:47;4.30;;;2.00;;
75512;SDS011;64090;49.770;18.760;2023-08-31T17:50:51;3.40;;;2.00;;
75512;SDS011;64090;49.770;18.760;2023-08-31T17:53:54;2.80;;;1.90;;
75512;SDS011;64090;49.770;18.760;2023-08-31T17:57:01;3.00;;;2.10;;
75512;SDS011;64090;49.770;18.760;2023-08-31T18:00:05;2.90;;;2.20;;
75512;SDS011;64090;49.770;18.760;2023-08-31T18:06:16;6.10;;;4.80;;
75512;SDS011;64090;49.770;18.760;2023-08-31T18:10:01;4.80;;;3.10;;
75512;SDS011;64090;49.770;18.760;2023-08-31T18:13:05;3.60;;;2.80;;
75512;SDS011;64090;49.770;18.760;2023-08-31T18:16:08;4.40;;;3.30;;
75512;SDS011;64090;49.770;18.760;2023-08-31T18:19:13;5.80;;;4.30;;
75512;SDS011;64090;49.770;18.760;2023-08-31T18:22:16;5.30;;;3.70;;
75512;SDS011;64090;49.770;18.760;2023-08-31T18:25:19;5.50;;;3.50;;
75512;SDS011;64090;49.770;18.760;2023-08-31T18:28:22;5.90;;;3.80;;
75512;SDS011;64090;49.770;18.760;2023-08-31T18:31:25;5.70;;;4.20;;
75512;SDS011;64090;49.770;18.760;2023-08-31T18:34:32;5.40;;;3.40;;
75512;SDS011;64090;49.770;18.760;2023-08-31T18:37:36;6.50;;;4.80;;
75512;SDS011;64090;49.770;18.760;2023-08-31T18:40:39;6.00;;;3.70;;
75512;SDS011;64090;49.770;18.760;2023-08-31T18:43:42;4.70;;;3.10;;
75512;SDS011;64090;49.770;18.760;2023-08-31T18:46:48;5.60;;;4.00;;
75512;SDS011;64090;49.770;18.760;2023-08-31T18:49:51;5.70;;;3.40;;
75512;SDS011;64090;49.770;18.760;2023-08-31T18:52:54;4.60;;;3.70;;
75512;SDS011;64090;49.770;18.760;2023-08-31T18:56:00;5.70;;;3.70;;
75512;SDS011;64090;49.770;18.760;2023-08-31T18:59:06;5.60;;;3.90;;
75512;SDS011;64090;49.770;18.760;2023-08-31T19:02:09;6.10;;;4.50;;
75512;SDS011;64090;49.770;18.760;2023-08-31T19:05:13;4.90;;;3.80;;
75512;SDS011;64090;49.770;18.760;2023-08-31T19:08:16;5.60;;;3.70;;
75512;SDS011;64090;49.770;18.760;2023-08-31T19:11:20;4.80;;;4.20;;
75512;SDS011;64090;49.770;18.760;2023-08-31T19:14:23;6.90;;;5.30;;
75512;SDS011;64090;49.770;18.760;2023-08-31T19:17:26;6.50;;;4.00;;
75512;SDS011;64090;49.770;18.760;2023-08-31T19:20:28;6.90;;;4.00;;
75512;SDS011;64090;49.770;18.760;2023-08-31T19:23:32;6.10;;;4.20;;
75512;SDS011;64090;49.770;18.760;2023-08-31T19:26:35;7.50;;;4.30;;
75512;SDS011;64090;49.770;18.760;2023-08-31T19:29:40;7.00;;;4.30;;
75512;SDS011;64090;49.770;18.760;2023-08-31T19:32:44;8.80;;;5.00;;
75512;SDS011;64090;49.770;18.760;2023-08-31T19:35:48;7.80;;;4.40;;
75512;SDS011;64090;49.770;18.760;2023-08-31T19:38:54;5.30;;;4.30;;
75512;SDS011;64090;49.770;18.760;2023-08-31T19:41:58;5.20;;;4.40;;
75512;SDS011;64090;49.770;18.760;2023-08-31T19:45:02;5.60;;;4.20;;
75512;SDS011;64090;49.770;18.760;2023-08-31T19:48:05;5.20;;;3.60;;
75512;SDS011;64090;49.770;18.760;2023-08-31T19:51:08;5.60;;;4.00;;
75512;SDS011;64090;49.770;18.760;2023-08-31T19:54:14;6.80;;;5.10;;
75512;SDS011;64090;49.770;18.760;2023-08-31T19:57:17;8.30;;;4.90;;